Time;durP1;ratioP1;P1;durP2;ratioP2;P2;SDS_P1;SDS_P2;PMS_P1;PMS_P2;Temp;Humidity;BMP_temperature;BMP_pressure;BME280_temperature;BME280_humidity;BME280_pressure;Samples;Min_cycle;Max_cycle;Signal;HPM_P1;HPM_P2
2021/10/26 00:04:47;;;;;;;105.20;77.50;;;21.30;49.70;;;;;;4287410;62;21347;-22
2021/10/26 00:09:48;;;;;;;98.85;74.87;;;21.30;49.70;;;;;;4268901;65;21133;-20
2021/10/26 00:14:51;;;;;;;101.95;74.60;;;21.40;49.70;;;;;;4271970;61;21783;-23
2021/10/26 00:19:53;;;;;;;105.05;76.82;;;21.30;49.50;;;;;;4274952;61;21543;-19
2021/10/26 00:24:53;;;;;;;97.95;73.05;;;21.30;49.50;;;;;;4271759;61;21109;-20
2021/10/26 00:29:54;;;;;;;103.93;73.82;;;21.30;49.40;;;;;;4285091;61;21139;-19
2021/10/26 00:34:55;;;;;;;100.05;74.65;;;21.30;49.40;;;;;;4278642;61;21089;-19
2021/10/26 00:39:56;;;;;;;98.80;74.12;;;21.30;49.40;;;;;;4290138;62;21608;-16
2021/10/26 00:44:57;;;;;;;102.05;75.40;;;21.30;49.30;;;;;;4276460;61;21155;-22
2021/10/26 00:49:58;;;;;;;99.68;74.00;;;21.30;49.30;;;;;;4337656;62;21050;-21
2021/10/26 00:54:59;;;;;;;98.32;71.35;;;21.30;49.30;;;;;;4271978;61;21552;-21
2021/10/26 01:00:00;;;;;;;95.18;71.57;;;21.30;49.20;;;;;;4279782;61;21591;-23
2021/10/26 01:05:01;;;;;;;96.90;72.12;;;21.30;49.20;;;;;;4269168;62;21069;-22
2021/10/26 01:10:03;;;;;;;93.60;69.00;;;21.30;49.10;;;;;;4280318;61;21110;-21
2021/10/26 01:15:06;;;;;;;96.20;70.37;;;21.30;49.10;;;;;;4338471;61;21146;-17
2021/10/26 01:20:07;;;;;;;94.22;69.35;;;21.30;49.10;;;;;;4276574;61;21659;-18
2021/10/26 01:25:13;;;;;;;91.93;68.62;;;21.20;49.00;;;;;;4287515;61;21070;-20
2021/10/26 01:30:18;;;;;;;94.45;68.03;;;21.30;49.00;;;;;;4285537;61;21050;-21
2021/10/26 01:35:19;;;;;;;91.55;68.85;;;21.20;48.90;;;;;;4274697;61;21105;-18
2021/10/26 01:40:19;;;;;;;92.68;67.65;;;21.20;48.90;;;;;;4317652;61;21146;-20
2021/10/26 01:45:20;;;;;;;96.95;68.85;;;21.20;48.80;;;;;;4287685;61;21142;-25
2021/10/26 01:50:22;;;;;;;90.22;65.70;;;21.20;48.80;;;;;;4275195;61;21049;-20
2021/10/26 01:55:23;;;;;;;88.28;65.18;;;21.20;48.80;;;;;;4280396;61;21588;-20
2021/10/26 02:00:23;;;;;;;85.85;64.82;;;21.20;48.70;;;;;;4331980;61;21057;-20
2021/10/26 02:05:27;;;;;;;87.75;63.97;;;21.20;48.70;;;;;;4282725;61;21115;-23
2021/10/26 02:10:28;;;;;;;83.47;61.33;;;21.20;48.70;;;;;;4275222;61;21531;-23
2021/10/26 02:15:31;;;;;;;85.03;62.72;;;21.20;48.70;;;;;;4283983;61;21146;-20
2021/10/26 02:20:32;;;;;;;86.93;62.90;;;21.20;48.60;;;;;;4299840;61;22158;-23
2021/10/26 02:25:33;;;;;;;80.78;59.65;;;21.20;48.60;;;;;;4277400;61;22117;-23
2021/10/26 02:30:34;;;;;;;85.72;62.85;;;21.20;48.60;;;;;;4308272;61;21666;-23
2021/10/26 02:35:35;;;;;;;84.10;60.70;;;21.20;48.60;;;;;;4283605;61;21129;-24
2021/10/26 02:40:36;;;;;;;81.20;60.80;;;21.20;48.50;;;;;;4271844;61;21089;-24
2021/10/26 02:45:38;;;;;;;80.75;60.78;;;21.10;48.40;;;;;;4276452;61;21108;-21
2021/10/26 02:50:39;;;;;;;82.62;59.70;;;21.10;48.50;;;;;;4300158;61;22104;-25
2021/10/26 02:55:40;;;;;;;78.95;58.25;;;21.10;49.00;;;;;;4287215;61;21152;-24
2021/10/26 03:00:41;;;;;;;81.30;59.08;;;21.10;48.50;;;;;;4282979;61;21942;-21
2021/10/26 03:05:42;;;;;;;78.53;58.30;;;21.10;48.30;;;;;;4278932;61;22226;-18
2021/10/26 03:10:43;;;;;;;78.28;58.55;;;21.10;48.30;;;;;;4282213;61;21093;-21
2021/10/26 03:15:44;;;;;;;78.07;57.22;;;21.10;48.30;;;;;;4283848;61;21097;-25
2021/10/26 03:20:45;;;;;;;77.32;56.15;;;21.10;48.30;;;;;;4278405;61;21516;-23
2021/10/26 03:25:46;;;;;;;74.90;55.65;;;21.10;48.20;;;;;;4269417;65;21620;-19
2021/10/26 03:30:47;;;;;;;77.18;55.60;;;21.10;48.20;;;;;;4286416;61;21649;-20
2021/10/26 03:35:50;;;;;;;74.25;55.33;;;21.10;48.20;;;;;;4294240;62;22290;-18
2021/10/26 03:40:51;;;;;;;74.68;53.55;;;21.10;48.20;;;;;;4270172;61;21603;-21
2021/10/26 03:45:52;;;;;;;74.85;54.70;;;21.10;48.20;;;;;;4281999;61;22311;-21
2021/10/26 03:50:53;;;;;;;75.37;54.90;;;21.10;48.20;;;;;;4302226;61;21161;-21
2021/10/26 03:55:55;;;;;;;71.53;54.35;;;21.10;48.20;;;;;;4269769;61;21147;-21
2021/10/26 04:00:56;;;;;;;70.22;53.10;;;21.10;48.20;;;;;;4302931;61;21138;-18
2021/10/26 04:06:01;;;;;;;71.18;53.00;;;21.00;48.10;;;;;;4275685;61;21624;-19
2021/10/26 04:11:14;;;;;;;72.50;52.83;;;21.00;48.10;;;;;;4268731;61;21501;-22
2021/10/26 04:16:15;;;;;;;70.68;52.75;;;21.10;48.10;;;;;;4275580;61;21569;-26
2021/10/26 04:21:19;;;;;;;68.32;52.42;;;21.00;48.10;;;;;;4313987;61;21647;-18
2021/10/26 04:26:20;;;;;;;67.65;50.75;;;21.00;48.70;;;;;;4276421;61;21058;-21
2021/10/26 04:31:21;;;;;;;68.15;50.63;;;21.00;48.10;;;;;;4286522;61;21097;-22
2021/10/26 04:36:22;;;;;;;68.05;50.90;;;21.00;48.10;;;;;;4297414;61;21117;-25
2021/10/26 04:41:23;;;;;;;68.28;50.75;;;21.00;48.10;;;;;;4283979;61;21062;-21
2021/10/26 04:46:23;;;;;;;65.85;50.05;;;21.00;48.10;;;;;;4319341;61;21552;-24
2021/10/26 04:51:24;;;;;;;66.80;49.53;;;21.00;48.10;;;;;;4276510;61;21081;-18
2021/10/26 04:56:25;;;;;;;64.87;48.87;;;21.00;48.10;;;;;;4269509;62;21535;-20
2021/10/26 05:01:26;;;;;;;63.15;48.53;;;21.00;48.10;;;;;;4279548;61;21081;-22
2021/10/26 05:06:27;;;;;;;65.95;48.83;;;21.00;48.10;;;;;;4280821;61;21122;-23
2021/10/26 05:11:28;;;;;;;63.35;48.28;;;21.00;48.10;;;;;;4280367;61;21092;-20
2021/10/26 05:16:29;;;;;;;62.33;47.67;;;21.00;48.10;;;;;;4269177;63;21146;-18
2021/10/26 05:21:33;;;;;;;63.13;48.00;;;20.90;48.10;;;;;;4268435;65;21602;-24
2021/10/26 05:26:35;;;;;;;63.65;46.80;;;20.90;48.10;;;;;;4279798;61;21118;-22
2021/10/26 05:31:38;;;;;;;60.90;46.42;;;20.90;48.10;;;;;;4275558;61;21073;-19
2021/10/26 05:36:38;;;;;;;64.30;48.08;;;20.90;48.00;;;;;;4284106;61;21630;-21
2021/10/26 05:41:40;;;;;;;63.40;47.55;;;20.90;48.00;;;;;;4299916;61;21070;-18
2021/10/26 05:46:41;;;;;;;64.80;47.22;;;20.90;48.00;;;;;;4304100;61;21540;-18
2021/10/26 05:51:42;;;;;;;60.90;45.78;;;20.90;48.00;;;;;;4287032;61;21061;-25
2021/10/26 05:56:43;;;;;;;60.90;46.85;;;21.00;48.10;;;;;;4274189;61;21065;-23
2021/10/26 06:01:44;;;;;;;60.53;46.00;;;20.90;48.00;;;;;;4273428;61;21624;-21
2021/10/26 06:06:46;;;;;;;64.47;45.90;;;20.90;48.00;;;;;;4274067;61;21093;-22
2021/10/26 06:11:49;;;;;;;61.33;45.40;;;20.90;48.00;;;;;;4274661;61;21571;-23
2021/10/26 06:16:50;;;;;;;60.15;45.35;;;20.90;48.00;;;;;;4269101;61;21169;-23
2021/10/26 06:21:51;;;;;;;61.20;46.60;;;20.90;48.00;;;;;;4269239;61;21663;-24
2021/10/26 06:26:52;;;;;;;61.20;46.42;;;20.90;47.90;;;;;;4291876;61;21101;-25
2021/10/26 06:31:53;;;;;;;61.22;45.05;;;20.90;47.90;;;;;;4269199;61;21138;-22
2021/10/26 06:36:54;;;;;;;59.53;43.95;;;20.90;48.00;;;;;;4271307;61;21069;-21
2021/10/26 06:41:55;;;;;;;62.65;46.83;;;20.90;47.90;;;;;;4267871;65;21121;-22
2021/10/26 06:46:56;;;;;;;56.40;43.55;;;20.80;47.90;;;;;;4289796;61;21600;-22
2021/10/26 06:51:57;;;;;;;60.35;44.72;;;20.90;47.90;;;;;;4272036;61;21062;-25
2021/10/26 06:56:58;;;;;;;60.00;44.33;;;20.80;47.90;;;;;;4274855;61;21069;-22
2021/10/26 07:01:59;;;;;;;58.95;45.92;;;20.90;47.90;;;;;;4267689;65;21154;-21
2021/10/26 07:07:00;;;;;;;59.40;45.92;;;20.80;47.90;;;;;;4269030;61;21564;-25
2021/10/26 07:12:01;;;;;;;58.92;45.58;;;20.90;47.90;;;;;;4268184;61;21117;-23
2021/10/26 07:17:02;;;;;;;64.72;47.10;;;20.80;47.80;;;;;;4269958;61;21057;-25
2021/10/26 07:22:03;;;;;;;59.13;46.22;;;20.90;48.10;;;;;;4270367;61;21157;-24
2021/10/26 07:27:05;;;;;;;62.72;47.75;;;20.90;48.20;;;;;;4272106;61;21669;-20
2021/10/26 07:32:07;;;;;;;60.20;46.60;;;21.00;48.30;;;;;;4269156;61;22259;-24
2021/10/26 07:37:08;;;;;;;62.42;46.90;;;21.00;48.40;;;;;;4299122;61;21134;-22
2021/10/26 07:42:08;;;;;;;63.72;48.00;;;21.10;48.40;;;;;;4267344;65;21682;-19
2021/10/26 07:47:09;;;;;;;64.45;48.17;;;21.10;48.50;;;;;;4275372;61;21183;-22
2021/10/26 07:52:12;;;;;;;64.53;48.38;;;21.20;48.50;;;;;;4278207;61;21769;-26
2021/10/26 07:57:13;;;;;;;67.12;50.90;;;21.20;48.50;;;;;;4278668;61;21564;-22
2021/10/26 08:02:14;;;;;;;64.85;49.83;;;21.20;48.60;;;;;;4270179;62;21552;-19
2021/10/26 08:07:17;;;;;;;70.72;51.25;;;21.30;48.60;;;;;;4269737;61;21093;-25
2021/10/26 08:12:22;;;;;;;69.50;52.85;;;21.30;48.70;;;;;;4276357;61;21512;-22
2021/10/26 08:17:24;;;;;;;68.62;52.42;;;21.30;48.70;;;;;;4275991;61;21117;-26
2021/10/26 08:22:26;;;;;;;69.95;53.08;;;21.30;48.80;;;;;;4267914;65;21590;-25
2021/10/26 08:27:27;;;;;;;71.60;53.40;;;21.40;48.90;;;;;;4282358;61;21552;-25
2021/10/26 08:38:22;;;;;;;88.57;64.47;;;21.40;48.50;;;;;;4270245;62;21576;-22
2021/10/26 08:43:24;;;;;;;195.68;141.88;;;21.50;48.30;;;;;;4270404;62;21185;-22
2021/10/26 08:48:26;;;;;;;228.85;173.20;;;21.40;44.90;;;;;;4268258;61;21084;-22
2021/10/26 08:53:29;;;;;;;216.93;159.95;;;21.40;43.90;;;;;;4269389;61;21567;-22
2021/10/26 08:58:33;;;;;;;214.55;154.35;;;21.40;43.60;;;;;;4310193;61;21604;-25
2021/10/26 09:03:39;;;;;;;205.02;150.32;;;21.40;43.80;;;;;;4288674;61;21142;-17
2021/10/26 09:08:42;;;;;;;219.68;149.45;;;21.40;43.30;;;;;;4267989;65;21543;-23
2021/10/26 09:19:15;;;;;;;198.85;136.18;;;21.40;43.00;;;;;;4270594;62;21105;-26
2021/10/26 09:24:16;;;;;;;201.82;135.95;;;21.40;42.80;;;;;;4276993;61;21065;-25
2021/10/26 09:29:38;;;;;;;191.50;132.18;;;21.40;42.90;;;;;;4272263;61;21531;-25
2021/10/26 09:34:59;;;;;;;174.12;122.03;;;21.40;42.90;;;;;;4283388;61;21134;-25
2021/10/26 09:40:00;;;;;;;158.87;112.93;;;21.40;42.60;;;;;;4267927;65;21416;-25
2021/10/26 09:45:03;;;;;;;137.00;100.28;;;21.40;42.70;;;;;;4275352;61;21892;-27
2021/10/26 09:50:07;;;;;;;145.50;104.93;;;21.40;42.80;;;;;;4282661;61;21596;-27
2021/10/26 09:55:23;;;;;;;145.30;104.90;;;21.40;42.90;;;;;;4275193;61;21072;-23
2021/10/26 10:00:30;;;;;;;143.82;103.93;;;21.40;42.90;;;;;;4303462;61;21829;-27
2021/10/26 10:05:36;;;;;;;142.40;102.53;;;21.40;42.90;;;;;;4290709;61;21555;-22
2021/10/26 10:10:40;;;;;;;142.85;106.57;;;21.40;42.80;;;;;;4269707;62;21173;-24
2021/10/26 10:15:49;;;;;;;162.02;114.85;;;21.40;42.90;;;;;;4274686;61;21074;-25
2021/10/26 10:20:53;;;;;;;170.07;122.37;;;21.40;42.80;;;;;;4274273;61;21120;-24
2021/10/26 10:25:56;;;;;;;168.40;121.85;;;21.40;43.00;;;;;;4303326;61;21081;-20
2021/10/26 10:30:58;;;;;;;163.70;117.15;;;21.40;43.90;;;;;;4295067;61;22296;-26
2021/10/26 10:36:00;;;;;;;166.05;118.07;;;21.40;43.70;;;;;;4280740;61;21527;-24
2021/10/26 10:47:53;;;;;;;150.32;113.70;;;21.40;44.00;;;;;;4274669;61;22225;-26
2021/10/26 10:59:44;;;;;;;152.25;110.78;;;21.40;44.80;;;;;;4268339;61;21101;-27
2021/10/26 11:04:45;;;;;;;144.52;107.25;;;21.50;45.40;;;;;;4289229;61;21154;-23
2021/10/26 11:09:51;;;;;;;147.20;108.85;;;21.50;45.70;;;;;;4286290;61;21671;-23
2021/10/26 11:14:55;;;;;;;146.10;108.82;;;21.50;46.50;;;;;;4268370;65;21584;-25
2021/10/26 11:19:57;;;;;;;147.15;107.82;;;21.50;46.10;;;;;;4293392;61;21614;-25
2021/10/26 11:25:34;;;;;;;139.55;105.60;;;21.50;46.30;;;;;;4268467;61;21176;-24
2021/10/26 11:31:13;;;;;;;141.77;104.72;;;21.50;46.70;;;;;;4292971;61;21037;-28
2021/10/26 11:36:17;;;;;;;138.55;102.82;;;21.50;46.90;;;;;;4269926;61;22407;-28
2021/10/26 11:41:25;;;;;;;137.93;101.30;;;21.60;47.40;;;;;;4276689;61;21097;-24
2021/10/26 11:46:35;;;;;;;138.18;102.80;;;21.60;47.80;;;;;;4272799;61;21169;-22
2021/10/26 11:51:42;;;;;;;134.90;102.22;;;21.50;47.70;;;;;;4277969;61;21145;-26
2021/10/26 11:56:49;;;;;;;127.82;99.60;;;21.50;47.70;;;;;;4272029;61;21050;-26
2021/10/26 12:01:54;;;;;;;;;;;21.50;47.70;;;;;;4282603;61;21563;-24
2021/10/26 12:07:07;;;;;;;132.20;100.15;;;21.50;47.80;;;;;;4268382;65;20338;-26
2021/10/26 12:12:23;;;;;;;132.95;100.82;;;21.50;47.80;;;;;;4270818;61;21647;-24
2021/10/26 12:17:31;;;;;;;135.95;101.07;;;21.50;47.90;;;;;;4284213;61;21173;-26
2021/10/26 12:22:48;;;;;;;129.57;99.85;;;21.50;47.90;;;;;;4279019;61;21074;-26
2021/10/26 12:28:00;;;;;;;126.87;98.65;;;21.50;48.00;;;;;;4270127;61;21145;-26
2021/10/26 12:33:22;;;;;;;129.77;98.57;;;21.50;48.20;;;;;;4268809;61;21170;-27
2021/10/26 12:38:40;;;;;;;124.05;96.82;;;21.50;48.40;;;;;;4267571;65;21041;-23
2021/10/26 12:43:45;;;;;;;122.07;93.60;;;21.50;48.60;;;;;;4303776;61;21704;-17
2021/10/26 12:48:46;;;;;;;122.80;95.50;;;21.60;49.30;;;;;;4278944;61;21604;-23
2021/10/26 12:53:47;;;;;;;125.32;95.78;;;21.60;49.40;;;;;;4291029;61;21074;-23
2021/10/26 12:58:53;;;;;;;119.62;94.40;;;21.60;49.50;;;;;;4281495;61;21555;-25
2021/10/26 13:04:13;;;;;;;128.77;94.62;;;21.60;49.70;;;;;;4272633;61;21359;-23
2021/10/26 13:09:38;;;;;;;121.37;96.45;;;21.60;49.80;;;;;;4293125;61;21527;-25
2021/10/26 13:14:50;;;;;;;132.45;99.15;;;21.60;49.90;;;;;;4269129;61;21612;-23
2021/10/26 13:20:10;;;;;;;125.03;97.82;;;21.60;49.90;;;;;;4275786;61;21062;-27
2021/10/26 13:25:11;;;;;;;125.53;96.12;;;21.60;50.10;;;;;;4271125;61;21145;-27
2021/10/26 13:30:12;;;;;;;122.15;93.37;;;21.60;50.20;;;;;;4274933;61;21661;-26
2021/10/26 13:35:14;;;;;;;130.75;96.60;;;21.60;50.30;;;;;;4272766;61;21560;-25
2021/10/26 13:40:15;;;;;;;125.80;97.10;;;21.60;50.40;;;;;;4270416;61;21607;-27
2021/10/26 13:45:16;;;;;;;125.65;94.45;;;21.60;50.40;;;;;;4267767;65;21142;-25
2021/10/26 13:50:16;;;;;;;123.05;92.70;;;21.60;50.50;;;;;;4272188;61;21603;-24
2021/10/26 13:55:17;;;;;;;119.60;93.18;;;21.70;50.90;;;;;;4268838;61;21959;-28
2021/10/26 14:00:18;;;;;;;143.20;111.40;;;21.70;51.00;;;;;;4271489;61;22189;-26
2021/10/26 14:05:19;;;;;;;177.38;130.40;;;21.70;49.80;;;;;;4280497;61;21081;-25
2021/10/26 14:10:21;;;;;;;171.77;124.68;;;21.60;48.90;;;;;;4276718;61;21592;-27
2021/10/26 14:15:22;;;;;;;169.18;125.15;;;21.60;49.10;;;;;;4269292;61;21088;-25
2021/10/26 14:20:25;;;;;;;168.52;122.78;;;21.60;49.30;;;;;;4280750;61;21151;-25
2021/10/26 14:25:26;;;;;;;161.12;119.72;;;21.60;49.40;;;;;;4269930;61;21595;-24
2021/10/26 14:30:27;;;;;;;156.70;119.55;;;21.60;49.40;;;;;;4282931;61;21081;-25
2021/10/26 14:35:32;;;;;;;159.70;119.28;;;21.60;50.00;;;;;;4291397;61;21109;-24
2021/10/26 14:57:42;;;;;;;149.95;111.70;;;21.60;49.50;;;;;;4267951;62;21129;-24
2021/10/26 15:02:43;;;;;;;152.12;115.82;;;21.50;49.40;;;;;;4300217;61;21473;-18
2021/10/26 15:07:49;;;;;;;149.05;115.35;;;21.50;49.30;;;;;;4281811;61;21034;-17
2021/10/26 15:12:57;;;;;;;151.77;116.03;;;21.50;49.40;;;;;;4272029;61;21234;-23
2021/10/26 15:17:58;;;;;;;148.52;112.07;;;21.50;49.50;;;;;;4295373;61;21612;-19
2021/10/26 15:23:05;;;;;;;144.77;109.25;;;21.50;49.50;;;;;;4292062;61;21085;-24
2021/10/26 15:33:30;;;;;;;143.65;110.57;;;21.40;49.60;;;;;;4296183;62;21161;-20
2021/10/26 15:38:32;;;;;;;150.30;112.62;;;21.40;49.80;;;;;;4270217;61;21596;-17
2021/10/26 15:43:34;;;;;;;142.45;108.87;;;21.40;49.70;;;;;;4268744;65;21563;-22
2021/10/26 15:48:35;;;;;;;138.75;106.40;;;21.40;49.80;;;;;;4296320;61;21050;-17
2021/10/26 15:53:36;;;;;;;141.18;105.90;;;21.30;49.80;;;;;;4268935;65;21579;-21
2021/10/26 15:58:37;;;;;;;140.62;107.57;;;21.40;49.90;;;;;;4287704;61;21156;-25
2021/10/26 16:03:38;;;;;;;144.07;109.90;;;21.30;49.80;;;;;;4276880;61;21081;-19
2021/10/26 16:08:39;;;;;;;143.20;108.00;;;21.40;49.90;;;;;;4318526;61;21555;-22
2021/10/26 16:13:42;;;;;;;140.30;108.80;;;21.30;49.90;;;;;;4276261;61;21545;-23
2021/10/26 16:18:43;;;;;;;141.32;107.35;;;21.30;49.90;;;;;;4269274;61;21546;-18
2021/10/26 16:23:44;;;;;;;136.68;106.22;;;21.30;49.90;;;;;;4268841;65;21077;-23
2021/10/26 16:28:47;;;;;;;138.00;105.53;;;21.30;49.90;;;;;;4280119;61;21552;-24
2021/10/26 16:33:55;;;;;;;134.55;104.12;;;21.30;50.00;;;;;;4269704;61;21825;-18
2021/10/26 16:39:02;;;;;;;141.12;108.28;;;21.30;50.00;;;;;;4274211;61;21750;-24
2021/10/26 16:44:10;;;;;;;138.40;107.78;;;21.30;50.00;;;;;;4269833;65;21130;-20
2021/10/26 16:49:11;;;;;;;138.45;106.53;;;21.30;50.00;;;;;;4342178;61;21688;-21
2021/10/26 16:54:13;;;;;;;137.95;105.95;;;21.30;50.00;;;;;;4269241;61;21618;-22
2021/10/26 16:59:14;;;;;;;137.55;106.65;;;21.30;50.10;;;;;;4275678;61;22159;-23
2021/10/26 17:04:16;;;;;;;132.60;104.10;;;21.30;50.10;;;;;;4273172;61;21073;-23
2021/10/26 17:09:17;;;;;;;134.52;104.38;;;21.30;50.10;;;;;;4272277;61;21070;-24
2021/10/26 17:14:18;;;;;;;136.57;105.50;;;21.30;50.10;;;;;;4269400;65;21468;-22
2021/10/26 17:19:19;;;;;;;132.48;102.80;;;21.20;50.00;;;;;;4274527;61;21126;-22
2021/10/26 17:24:20;;;;;;;137.27;105.97;;;21.20;50.10;;;;;;4288845;61;21081;-18
2021/10/26 17:29:21;;;;;;;140.23;105.45;;;21.30;50.20;;;;;;4270102;65;21070;-21
2021/10/26 17:34:22;;;;;;;134.18;103.75;;;21.30;50.10;;;;;;4283761;61;21130;-19
2021/10/26 17:39:23;;;;;;;134.80;107.45;;;21.20;50.10;;;;;;4269709;61;21109;-16
2021/10/26 17:44:24;;;;;;;134.25;103.53;;;21.30;50.10;;;;;;4291782;61;21656;-23
2021/10/26 17:49:25;;;;;;;133.12;102.03;;;21.20;50.10;;;;;;4287981;61;21102;-23
2021/10/26 17:54:26;;;;;;;133.93;101.12;;;21.20;50.20;;;;;;4273259;61;21540;-20
2021/10/26 17:59:26;;;;;;;136.98;105.12;;;21.20;50.20;;;;;;4271090;61;21567;-21
2021/10/26 18:04:27;;;;;;;133.68;103.75;;;21.20;50.20;;;;;;4284860;61;21097;-25
2021/10/26 18:09:28;;;;;;;134.93;103.68;;;21.20;50.20;;;;;;4307291;61;21062;-21
2021/10/26 18:14:30;;;;;;;138.23;105.12;;;21.20;50.20;;;;;;4270853;61;21050;-24
2021/10/26 18:19:35;;;;;;;136.07;103.45;;;21.20;50.20;;;;;;4284450;61;21149;-24
2021/10/26 18:24:38;;;;;;;135.70;103.97;;;21.20;50.20;;;;;;4273769;61;21212;-21
2021/10/26 18:29:47;;;;;;;138.43;105.35;;;21.20;50.20;;;;;;4283022;61;21555;-22
2021/10/26 18:34:48;;;;;;;133.45;105.03;;;21.20;50.20;;;;;;4287360;61;21587;-20
2021/10/26 18:39:49;;;;;;;134.55;103.75;;;21.20;50.20;;;;;;4270933;61;21587;-22
2021/10/26 18:44:56;;;;;;;133.12;103.82;;;21.20;50.20;;;;;;4270485;61;21610;-23
2021/10/26 18:49:57;;;;;;;137.05;104.40;;;21.20;50.20;;;;;;4298589;61;22231;-24
2021/10/26 18:54:58;;;;;;;136.88;103.62;;;21.20;50.20;;;;;;4283301;62;21186;-22
2021/10/26 18:59:59;;;;;;;137.45;106.20;;;21.20;50.20;;;;;;4286569;61;21196;-20
2021/10/26 19:05:00;;;;;;;136.15;105.78;;;21.20;50.30;;;;;;4269823;61;21126;-19
2021/10/26 19:10:03;;;;;;;139.02;106.70;;;21.20;50.20;;;;;;4274605;61;21147;-21
2021/10/26 19:15:05;;;;;;;139.10;106.50;;;21.20;50.20;;;;;;4290519;61;21635;-19
2021/10/26 19:20:08;;;;;;;139.88;104.75;;;21.20;50.20;;;;;;4274699;61;21232;-22
2021/10/26 19:25:11;;;;;;;140.68;109.20;;;21.20;50.20;;;;;;4289156;61;21542;-18
2021/10/26 19:30:12;;;;;;;136.35;105.25;;;21.20;50.20;;;;;;4309486;61;21580;-23
2021/10/26 19:35:13;;;;;;;138.65;107.53;;;21.20;50.20;;;;;;4289899;61;21124;-23
2021/10/26 19:40:14;;;;;;;139.05;106.40;;;21.20;50.20;;;;;;4274618;61;21089;-18
2021/10/26 19:45:15;;;;;;;138.45;105.47;;;21.20;50.20;;;;;;4270179;61;21556;-18
2021/10/26 19:50:19;;;;;;;143.87;109.87;;;21.20;50.20;;;;;;4292961;61;21065;-19
2021/10/26 19:55:21;;;;;;;142.13;109.00;;;21.20;50.20;;;;;;4270040;62;21152;-21
2021/10/26 20:00:23;;;;;;;137.25;105.10;;;21.20;50.20;;;;;;4273280;61;21062;-23
2021/10/26 20:05:24;;;;;;;142.87;107.43;;;21.20;50.20;;;;;;4286562;61;21961;-21
2021/10/26 20:10:25;;;;;;;142.20;107.22;;;21.20;50.20;;;;;;4274094;61;21126;-22
2021/10/26 20:15:27;;;;;;;137.90;106.57;;;21.20;50.20;;;;;;4292192;61;21535;-19
2021/10/26 20:20:43;;;;;;;141.75;109.20;;;21.20;50.20;;;;;;4285237;61;21615;-24
2021/10/26 20:25:44;;;;;;;138.30;106.85;;;21.10;50.10;;;;;;4269741;62;21568;-20
2021/10/26 20:30:45;;;;;;;139.55;106.15;;;21.20;50.10;;;;;;4275970;61;21085;-23
2021/10/26 20:35:47;;;;;;;143.70;108.55;;;21.20;50.10;;;;;;4308123;61;21949;-22
2021/10/26 20:40:48;;;;;;;138.18;105.53;;;21.20;50.10;;;;;;4284726;61;21583;-23
2021/10/26 20:45:49;;;;;;;136.05;104.55;;;21.20;50.10;;;;;;4286235;61;21061;-17
2021/10/26 20:51:08;;;;;;;139.45;108.93;;;21.10;50.00;;;;;;4281404;61;21615;-20
2021/10/26 20:56:09;;;;;;;145.50;110.22;;;21.10;50.00;;;;;;4278977;61;22041;-22
2021/10/26 21:01:10;;;;;;;142.18;110.12;;;21.10;49.90;;;;;;4299509;61;21110;-20
2021/10/26 21:06:10;;;;;;;142.77;107.47;;;21.10;49.90;;;;;;4292875;61;21435;-23
2021/10/26 21:11:11;;;;;;;139.75;106.90;;;21.10;49.90;;;;;;4299508;61;21060;-17
2021/10/26 21:16:13;;;;;;;138.80;105.85;;;21.10;50.00;;;;;;4270799;62;21627;-22
2021/10/26 21:21:13;;;;;;;140.18;105.72;;;21.10;50.00;;;;;;4305288;61;21608;-23
2021/10/26 21:26:14;;;;;;;140.27;106.57;;;21.10;49.80;;;;;;4285577;61;21074;-18
2021/10/26 21:31:17;;;;;;;138.45;107.72;;;21.10;49.80;;;;;;4287315;61;21652;-22
2021/10/26 21:36:38;;;;;;;134.90;104.20;;;21.10;49.80;;;;;;4284829;61;22056;-17
2021/10/26 21:41:41;;;;;;;135.73;103.57;;;21.10;49.70;;;;;;4295585;60;21547;-21
2021/10/26 21:46:42;;;;;;;135.40;102.15;;;21.10;49.70;;;;;;4300472;61;21086;-22
2021/10/26 21:51:43;;;;;;;136.35;103.05;;;21.10;49.80;;;;;;4281974;61;21564;-20
2021/10/26 21:56:44;;;;;;;131.50;103.20;;;21.10;49.70;;;;;;4285026;61;21547;-20
2021/10/26 22:01:45;;;;;;;134.05;103.47;;;21.10;49.70;;;;;;4269676;65;21547;-20
2021/10/26 22:06:48;;;;;;;133.10;101.12;;;21.10;49.70;;;;;;4274512;61;21276;-22
2021/10/26 22:11:49;;;;;;;136.10;103.78;;;21.10;49.70;;;;;;4284254;61;21611;-20
2021/10/26 22:16:51;;;;;;;132.07;101.25;;;21.10;49.70;;;;;;4289597;61;21061;-23
2021/10/26 22:21:52;;;;;;;135.45;103.97;;;21.10;49.60;;;;;;4278884;61;21603;-20
2021/10/26 22:26:53;;;;;;;135.85;103.53;;;21.10;49.60;;;;;;4273546;61;21058;-21
2021/10/26 22:31:54;;;;;;;135.07;101.15;;;21.10;49.60;;;;;;4272783;61;21157;-19
2021/10/26 22:36:55;;;;;;;133.20;100.28;;;21.10;49.60;;;;;;4270053;65;21588;-22
2021/10/26 22:41:56;;;;;;;132.63;100.47;;;21.10;49.50;;;;;;4317590;61;21450;-21
2021/10/26 22:46:56;;;;;;;133.40;102.03;;;21.10;49.50;;;;;;4280217;61;21095;-24
2021/10/26 22:51:58;;;;;;;129.55;98.45;;;21.10;49.50;;;;;;4274794;61;21177;-21
2021/10/26 22:56:59;;;;;;;133.93;99.87;;;21.10;49.50;;;;;;4282778;61;21057;-24
2021/10/26 23:02:01;;;;;;;126.75;94.50;;;21.00;49.40;;;;;;4274145;61;21552;-22
2021/10/26 23:07:02;;;;;;;134.00;101.05;;;21.00;49.40;;;;;;4284529;61;21614;-19
2021/10/26 23:12:04;;;;;;;131.65;99.87;;;21.00;49.30;;;;;;4308449;61;21061;-22
2021/10/26 23:17:05;;;;;;;129.20;96.30;;;21.10;49.40;;;;;;4275180;61;21030;-19
2021/10/26 23:22:05;;;;;;;128.77;98.85;;;21.00;49.30;;;;;;4271915;61;21608;-24
2021/10/26 23:27:06;;;;;;;126.40;95.62;;;21.00;49.40;;;;;;4281885;61;21555;-24
2021/10/26 23:32:10;;;;;;;125.80;95.05;;;21.00;49.90;;;;;;4274307;61;21587;-22
2021/10/26 23:37:11;;;;;;;125.28;93.37;;;21.00;49.20;;;;;;4290775;61;21455;-16
2021/10/26 23:42:12;;;;;;;123.70;94.35;;;21.00;49.30;;;;;;4270906;61;21071;-22
2021/10/26 23:47:13;;;;;;;123.10;94.37;;;21.00;49.20;;;;;;4283556;61;21129;-14
2021/10/26 23:52:14;;;;;;;128.15;96.12;;;21.00;49.20;;;;;;4279587;61;22087;-17
2021/10/26 23:57:14;;;;;;;120.68;92.43;;;21.00;49.20;;;;;;4270119;61;21512;-19
